Time;durP1;ratioP1;P1;durP2;ratioP2;P2;SDS_P1;SDS_P2;PMS_P1;PMS_P2;Temp;Humidity;BMP_temperature;BMP_pressure;BME280_temperature;BME280_humidity;BME280_pressure;Samples;Min_cycle;Max_cycle;Signal;HPM_P1;HPM_P2
2021/12/29 00:02:21;;;;;;;13.52;5.75;;;;;;;;;;5069037;27;97712;-76
2021/12/29 00:04:48;;;;;;;15.07;5.72;;;;;;;;;;5071722;27;97233;-79
2021/12/29 00:07:14;;;;;;;21.85;7.10;;;;;;;;;;5065454;27;95717;-78
2021/12/29 00:09:41;;;;;;;21.08;7.40;;;;;;;;;;5067727;27;97365;-77
2021/12/29 00:12:08;;;;;;;23.02;8.52;;;;;;;;;;5069389;27;95414;-79
2021/12/29 00:14:35;;;;;;;22.70;8.77;;;;;;;;;;5069524;27;95907;-76
2021/12/29 00:17:01;;;;;;;21.95;8.00;;;;;;;;;;5068988;27;96724;-78
2021/12/29 00:19:28;;;;;;;23.25;8.93;;;;;;;;;;5069852;27;95405;-77
2021/12/29 00:21:54;;;;;;;17.33;6.40;;;;;;;;;;5069370;27;96964;-76
2021/12/29 00:24:21;;;;;;;16.42;6.80;;;;;;;;;;5068079;27;96841;-79
2021/12/29 00:26:47;;;;;;;18.45;7.18;;;;;;;;;;5072535;27;95262;-78
2021/12/29 00:29:15;;;;;;;23.92;7.38;;;;;;;;;;5067655;27;96593;-77
2021/12/29 00:31:42;;;;;;;21.45;7.72;;;;;;;;;;5069573;27;96009;-76
2021/12/29 00:34:08;;;;;;;29.08;9.25;;;;;;;;;;5069370;27;95717;-77
2021/12/29 00:36:35;;;;;;;21.98;8.45;;;;;;;;;;5068569;27;97365;-78
2021/12/29 00:39:01;;;;;;;21.88;8.35;;;;;;;;;;5069455;27;95683;-79
2021/12/29 00:41:27;;;;;;;23.10;7.78;;;;;;;;;;5069204;27;96864;-77
2021/12/29 00:43:55;;;;;;;28.90;7.93;;;;;;;;;;5068863;27;97258;-76
2021/12/29 00:46:31;;;;;;;31.27;7.80;;;;;;;;;;5069227;27;95220;-77
2021/12/29 00:48:57;;;;;;;22.20;7.82;;;;;;;;;;5072438;27;97011;-75
2021/12/29 00:51:23;;;;;;;25.98;7.97;;;;;;;;;;5071524;27;95810;-78
2021/12/29 00:53:50;;;;;;;21.73;8.02;;;;;;;;;;5073007;27;97150;-78
2021/12/29 00:56:16;;;;;;;25.13;7.57;;;;;;;;;;5072540;27;97270;-78
2021/12/29 00:58:44;;;;;;;25.23;8.27;;;;;;;;;;5072289;27;95630;-77
2021/12/29 01:01:10;;;;;;;28.70;9.18;;;;;;;;;;5072848;27;96904;-78
2021/12/29 01:03:38;;;;;;;33.00;9.70;;;;;;;;;;5072675;27;97308;-77
2021/12/29 01:06:05;;;;;;;33.10;9.73;;;;;;;;;;5072753;27;95770;-75
2021/12/29 01:08:32;;;;;;;33.17;10.73;;;;;;;;;;5075717;27;96788;-78
2021/12/29 01:10:59;;;;;;;35.05;10.52;;;;;;;;;;5072617;27;95475;-75
2021/12/29 01:13:34;;;;;;;32.22;11.10;;;;;;;;;;5071799;27;96502;-74
2021/12/29 01:18:32;;;;;;;47.13;11.27;;;;;;;;;;5072118;27;95263;-74
2021/12/29 01:20:58;;;;;;;42.90;12.48;;;;;;;;;;5071598;27;95931;-77
2021/12/29 01:23:24;;;;;;;32.45;10.95;;;;;;;;;;5071807;27;97304;-74
2021/12/29 01:25:51;;;;;;;35.92;11.20;;;;;;;;;;5072090;27;95367;-78
2021/12/29 01:28:17;;;;;;;35.38;11.25;;;;;;;;;;5071094;27;97041;-76
2021/12/29 01:30:44;;;;;;;36.35;12.20;;;;;;;;;;5073618;27;97456;-75
2021/12/29 01:33:10;;;;;;;40.42;12.02;;;;;;;;;;5071306;27;97035;-76
2021/12/29 01:35:38;;;;;;;42.60;11.73;;;;;;;;;;5072248;27;97080;-75
2021/12/29 01:38:05;;;;;;;32.63;10.00;;;;;;;;;;5072243;27;95560;-76
2021/12/29 01:40:32;;;;;;;34.25;9.55;;;;;;;;;;5071596;27;96823;-77
2021/12/29 01:42:59;;;;;;;28.85;9.18;;;;;;;;;;5071307;27;96416;-76
2021/12/29 01:45:27;;;;;;;28.02;8.35;;;;;;;;;;5071701;27;95676;-76
2021/12/29 01:47:53;;;;;;;35.25;8.40;;;;;;;;;;5071595;27;96812;-75
2021/12/29 01:50:20;;;;;;;23.67;7.65;;;;;;;;;;5071327;27;96170;-75
2021/12/29 01:52:54;;;;;;;23.17;7.22;;;;;;;;;;5075031;27;95735;-76
2021/12/29 01:55:25;;;;;;;17.27;6.85;;;;;;;;;;5070910;27;97680;-76
2021/12/29 01:57:52;;;;;;;20.67;7.28;;;;;;;;;;5072408;27;95424;-75
2021/12/29 02:00:20;;;;;;;20.20;6.78;;;;;;;;;;5070099;27;97061;-78
2021/12/29 02:02:47;;;;;;;14.45;6.47;;;;;;;;;;5070798;27;97308;-76
2021/12/29 02:05:13;;;;;;;23.55;6.97;;;;;;;;;;5071534;27;95298;-77
2021/12/29 02:07:41;;;;;;;28.23;6.95;;;;;;;;;;5071921;27;97176;-76
2021/12/29 02:10:08;;;;;;;24.23;8.02;;;;;;;;;;5070450;27;97192;-77
2021/12/29 02:12:35;;;;;;;21.45;6.85;;;;;;;;;;5071661;27;95478;-77
2021/12/29 02:15:02;;;;;;;29.17;8.30;;;;;;;;;;5074486;27;96650;-77
2021/12/29 02:17:29;;;;;;;25.63;8.50;;;;;;;;;;5070245;27;95403;-79
2021/12/29 02:19:59;;;;;;;36.50;8.70;;;;;;;;;;5071677;27;97151;-76
2021/12/29 02:22:38;;;;;;;30.13;8.65;;;;;;;;;;5070304;27;97665;-78
2021/12/29 02:27:44;;;;;;;25.25;7.65;;;;;;;;;;5071513;27;97170;-77
2021/12/29 02:30:10;;;;;;;29.40;7.72;;;;;;;;;;5070247;27;97037;-78
2021/12/29 02:32:37;;;;;;;37.30;7.75;;;;;;;;;;5071131;27;95602;-77
2021/12/29 02:35:04;;;;;;;26.42;7.60;;;;;;;;;;5070157;27;97110;-76
2021/12/29 02:37:30;;;;;;;31.33;7.28;;;;;;;;;;5073850;27;97405;-79
2021/12/29 02:39:57;;;;;;;34.85;6.65;;;;;;;;;;5071414;27;96904;-79
2021/12/29 02:42:27;;;;;;;30.75;6.53;;;;;;;;;;5070891;27;97260;-78
2021/12/29 02:44:53;;;;;;;25.90;5.85;;;;;;;;;;5070803;27;95862;-79
2021/12/29 02:47:20;;;;;;;31.98;6.85;;;;;;;;;;5071365;27;96836;-77
2021/12/29 02:49:47;;;;;;;38.45;6.80;;;;;;;;;;5069031;27;97247;-78
2021/12/29 02:52:14;;;;;;;34.72;6.00;;;;;;;;;;5070058;27;95762;-80
2021/12/29 02:54:40;;;;;;;30.45;6.00;;;;;;;;;;5071043;27;97369;-76
2021/12/29 02:57:07;;;;;;;42.92;6.55;;;;;;;;;;5070010;27;97282;-76
2021/12/29 02:59:33;;;;;;;45.67;7.40;;;;;;;;;;5074127;27;95648;-77
2021/12/29 03:02:00;;;;;;;30.30;6.60;;;;;;;;;;5070374;27;96984;-76
2021/12/29 03:04:26;;;;;;;32.30;6.65;;;;;;;;;;5070548;27;95443;-79
2021/12/29 03:06:53;;;;;;;35.65;7.65;;;;;;;;;;5071096;27;96565;-77
2021/12/29 03:09:19;;;;;;;60.85;9.57;;;;;;;;;;5070121;27;97302;-77
2021/12/29 03:11:47;;;;;;;32.30;7.15;;;;;;;;;;5070139;27;95610;-78
2021/12/29 03:14:14;;;;;;;38.53;8.15;;;;;;;;;;5069699;27;96804;-79
2021/12/29 03:16:41;;;;;;;30.92;6.80;;;;;;;;;;5068906;27;96709;-77
2021/12/29 03:19:07;;;;;;;34.17;6.50;;;;;;;;;;5072975;27;95912;-76
2021/12/29 03:21:34;;;;;;;33.85;6.25;;;;;;;;;;5070191;27;97276;-76
2021/12/29 03:24:00;;;;;;;38.67;6.53;;;;;;;;;;5070743;27;95391;-75
2021/12/29 03:26:27;;;;;;;40.45;7.82;;;;;;;;;;5069589;27;96883;-77
2021/12/29 03:28:54;;;;;;;31.83;6.80;;;;;;;;;;5069596;27;97116;-75
2021/12/29 03:31:21;;;;;;;32.83;6.65;;;;;;;;;;5070363;27;95336;-74
2021/12/29 03:33:48;;;;;;;24.23;6.30;;;;;;;;;;5069976;27;96796;-74
2021/12/29 03:36:15;;;;;;;31.77;6.65;;;;;;;;;;5070266;27;97793;-74
2021/12/29 03:38:42;;;;;;;29.08;6.18;;;;;;;;;;5069917;27;95480;-75
2021/12/29 03:41:11;;;;;;;30.88;6.43;;;;;;;;;;5072465;27;96718;-75
2021/12/29 03:43:38;;;;;;;26.40;6.43;;;;;;;;;;5069969;27;95482;-74
2021/12/29 03:46:05;;;;;;;33.08;6.40;;;;;;;;;;5069162;27;96777;-75
2021/12/29 03:48:32;;;;;;;27.60;6.85;;;;;;;;;;5069406;27;97385;-74
2021/12/29 03:51:00;;;;;;;20.85;6.28;;;;;;;;;;5070214;27;95399;-74
2021/12/29 03:53:27;;;;;;;27.00;5.78;;;;;;;;;;5069458;27;96687;-77
2021/12/29 03:55:53;;;;;;;24.52;5.90;;;;;;;;;;5070108;27;97530;-75
2021/12/29 03:58:21;;;;;;;20.35;5.60;;;;;;;;;;5069975;27;95547;-77
2021/12/29 04:00:48;;;;;;;32.20;6.88;;;;;;;;;;5070162;27;96753;-75
2021/12/29 04:03:15;;;;;;;21.60;6.13;;;;;;;;;;5072534;27;97152;-75
2021/12/29 04:05:44;;;;;;;27.92;6.00;;;;;;;;;;5069532;27;95689;-76
2021/12/29 04:08:11;;;;;;;28.17;5.65;;;;;;;;;;5068674;27;97351;-75
2021/12/29 04:10:37;;;;;;;25.35;5.97;;;;;;;;;;5070069;27;95851;-75
2021/12/29 04:13:04;;;;;;;19.70;5.95;;;;;;;;;;5069955;27;96788;-75
2021/12/29 04:15:33;;;;;;;25.13;6.30;;;;;;;;;;5069335;27;97524;-76
2021/12/29 04:18:03;;;;;;;23.83;6.90;;;;;;;;;;5069241;27;96022;-74
2021/12/29 04:23:16;;;;;;;25.25;7.00;;;;;;;;;;5069016;27;97403;-76
2021/12/29 04:25:45;;;;;;;22.58;6.88;;;;;;;;;;5071784;27;95315;-77
2021/12/29 04:28:15;;;;;;;30.00;7.15;;;;;;;;;;5068400;27;97469;-76
2021/12/29 04:30:42;;;;;;;35.13;8.40;;;;;;;;;;5069393;27;95306;-74
2021/12/29 04:33:11;;;;;;;27.83;8.00;;;;;;;;;;5069254;27;96464;-74
2021/12/29 04:35:37;;;;;;;31.98;8.40;;;;;;;;;;5068860;27;97684;-75
2021/12/29 04:38:04;;;;;;;32.55;7.93;;;;;;;;;;5069635;27;95665;-75
2021/12/29 04:40:30;;;;;;;22.25;8.20;;;;;;;;;;5069121;27;95765;-75
2021/12/29 04:42:57;;;;;;;26.63;8.20;;;;;;;;;;5068349;27;97330;-75
2021/12/29 04:45:25;;;;;;;20.98;7.70;;;;;;;;;;5069241;27;95242;-75
2021/12/29 04:47:52;;;;;;;27.42;8.98;;;;;;;;;;5072422;27;97273;-75
2021/12/29 04:50:26;;;;;;;22.10;7.43;;;;;;;;;;5069033;27;95246;-75
2021/12/29 04:53:00;;;;;;;24.38;7.43;;;;;;;;;;5068170;27;96853;-75
2021/12/29 04:55:27;;;;;;;17.13;6.20;;;;;;;;;;5069173;27;97922;-75
2021/12/29 04:57:55;;;;;;;19.02;6.60;;;;;;;;;;5068583;27;95196;-75
2021/12/29 05:00:24;;;;;;;13.98;6.47;;;;;;;;;;5069005;27;96945;-76
2021/12/29 05:02:51;;;;;;;16.20;6.18;;;;;;;;;;5068567;27;97310;-75
2021/12/29 05:05:22;;;;;;;20.65;6.60;;;;;;;;;;5068754;27;95506;-75
2021/12/29 05:10:34;;;;;;;25.40;6.80;;;;;;;;;;5051453;27;95883;-75
2021/12/29 05:13:00;;;;;;;16.77;6.47;;;;;;;;;;5059803;27;96774;-76
2021/12/29 05:15:27;;;;;;;16.10;6.32;;;;;;;;;;5069021;27;97476;-75
2021/12/29 05:17:55;;;;;;;15.57;6.75;;;;;;;;;;5068977;27;95971;-75
2021/12/29 05:20:22;;;;;;;18.90;6.90;;;;;;;;;;5068469;27;96879;-79
2021/12/29 05:22:48;;;;;;;16.15;6.65;;;;;;;;;;5068289;27;97260;-75
2021/12/29 05:25:14;;;;;;;20.42;7.20;;;;;;;;;;5068441;27;95234;-76
2021/12/29 05:27:41;;;;;;;19.40;6.10;;;;;;;;;;5068857;27;96933;-75
2021/12/29 05:30:08;;;;;;;18.50;6.22;;;;;;;;;;5071069;27;97312;-75
2021/12/29 05:32:34;;;;;;;20.08;6.60;;;;;;;;;;5068191;27;95808;-75
2021/12/29 05:35:01;;;;;;;15.73;5.63;;;;;;;;;;5068255;27;97347;-75
2021/12/29 05:37:27;;;;;;;16.08;5.30;;;;;;;;;;5071152;27;95379;-75
2021/12/29 05:39:53;;;;;;;12.20;4.93;;;;;;;;;;5072235;27;97162;-77
2021/12/29 05:42:20;;;;;;;11.93;4.60;;;;;;;;;;5071403;27;97341;-76
2021/12/29 05:44:46;;;;;;;9.50;3.58;;;;;;;;;;5068389;27;97137;-77
2021/12/29 05:47:12;;;;;;;11.40;4.18;;;;;;;;;;5071436;27;97050;-80
2021/12/29 05:49:38;;;;;;;15.57;4.22;;;;;;;;;;5072203;27;97793;-79
2021/12/29 05:52:05;;;;;;;13.60;3.70;;;;;;;;;;5074507;27;95954;-77
2021/12/29 05:54:34;;;;;;;11.70;3.88;;;;;;;;;;5071337;27;97271;-78
2021/12/29 05:57:00;;;;;;;7.75;4.10;;;;;;;;;;5070515;27;95426;-80
2021/12/29 05:59:26;;;;;;;13.45;4.70;;;;;;;;;;5059228;27;96421;-76
2021/12/29 06:01:53;;;;;;;14.57;4.70;;;;;;;;;;5050990;27;97154;-77
2021/12/29 06:04:20;;;;;;;14.20;5.68;;;;;;;;;;5069973;27;95739;-80
2021/12/29 06:06:46;;;;;;;21.40;6.20;;;;;;;;;;5056451;27;96244;-79
2021/12/29 06:09:14;;;;;;;27.40;6.88;;;;;;;;;;5067336;27;97348;-80
2021/12/29 06:11:40;;;;;;;25.27;7.60;;;;;;;;;;5071486;27;95577;-77
2021/12/29 06:14:07;;;;;;;30.23;7.18;;;;;;;;;;5073284;27;96871;-78
2021/12/29 06:16:33;;;;;;;28.05;8.20;;;;;;;;;;5051384;27;95678;-78
2021/12/29 06:18:59;;;;;;;25.92;8.40;;;;;;;;;;5065724;27;96753;-79
2021/12/29 06:21:26;;;;;;;28.08;8.68;;;;;;;;;;5070254;27;97730;-76
2021/12/29 06:23:53;;;;;;;26.30;7.90;;;;;;;;;;5070504;27;95375;-76
2021/12/29 06:26:19;;;;;;;33.00;9.57;;;;;;;;;;5071735;27;96856;-76
2021/12/29 06:28:46;;;;;;;26.55;7.20;;;;;;;;;;5070090;27;96252;-78
2021/12/29 06:31:13;;;;;;;33.70;7.25;;;;;;;;;;5071074;27;95452;-78
2021/12/29 06:33:40;;;;;;;26.35;7.70;;;;;;;;;;5070116;27;96755;-78
2021/12/29 06:36:06;;;;;;;33.95;8.13;;;;;;;;;;5073354;27;97235;-75
2021/12/29 06:38:34;;;;;;;34.90;8.10;;;;;;;;;;5071132;27;97135;-74
2021/12/29 06:41:01;;;;;;;26.58;7.55;;;;;;;;;;5070702;27;97341;-75
2021/12/29 06:43:27;;;;;;;34.63;8.52;;;;;;;;;;5070658;27;95368;-74
2021/12/29 06:45:54;;;;;;;39.47;8.48;;;;;;;;;;5071386;27;96754;-74
2021/12/29 06:48:20;;;;;;;33.13;8.13;;;;;;;;;;5070664;27;97072;-74
2021/12/29 06:50:46;;;;;;;50.83;8.95;;;;;;;;;;5070338;27;95906;-75
2021/12/29 06:53:13;;;;;;;25.38;7.47;;;;;;;;;;5070936;27;96783;-76
2021/12/29 06:55:41;;;;;;;33.47;9.25;;;;;;;;;;5071010;27;97321;-75
2021/12/29 06:58:08;;;;;;;32.25;8.18;;;;;;;;;;5071765;27;95713;-75
2021/12/29 07:00:34;;;;;;;32.03;7.47;;;;;;;;;;5070195;27;97561;-76
2021/12/29 07:03:01;;;;;;;31.05;8.75;;;;;;;;;;5069995;27;95479;-76
2021/12/29 07:05:28;;;;;;;37.00;7.53;;;;;;;;;;5070619;27;100063;-76
2021/12/29 07:07:54;;;;;;;38.47;7.65;;;;;;;;;;5070691;27;97879;-77
2021/12/29 07:10:21;;;;;;;42.55;7.93;;;;;;;;;;5069845;27;95419;-74
2021/12/29 07:12:47;;;;;;;30.77;8.02;;;;;;;;;;5068812;27;96775;-75
2021/12/29 07:15:14;;;;;;;30.05;7.45;;;;;;;;;;5070481;27;97545;-75
2021/12/29 07:17:40;;;;;;;32.58;8.00;;;;;;;;;;5073470;27;95841;-75
2021/12/29 07:20:07;;;;;;;31.70;7.68;;;;;;;;;;5069719;27;97271;-74
2021/12/29 07:22:33;;;;;;;26.75;7.88;;;;;;;;;;5069058;27;95647;-74
2021/12/29 07:25:00;;;;;;;30.90;7.80;;;;;;;;;;5069985;27;96850;-74
2021/12/29 07:27:26;;;;;;;37.60;8.65;;;;;;;;;;5067010;27;97304;-76
2021/12/29 07:29:52;;;;;;;28.02;8.43;;;;;;;;;;5065109;27;95508;-76
2021/12/29 07:32:19;;;;;;;33.28;9.10;;;;;;;;;;5063324;27;97088;-74
2021/12/29 07:34:48;;;;;;;35.70;9.95;;;;;;;;;;5069288;27;97364;-74
2021/12/29 07:37:15;;;;;;;28.92;9.15;;;;;;;;;;5063475;27;95785;-80
2021/12/29 07:39:41;;;;;;;27.95;9.80;;;;;;;;;;5070876;27;96847;-75
2021/12/29 07:42:10;;;;;;;37.85;10.18;;;;;;;;;;5068186;27;95449;-74
2021/12/29 07:44:39;;;;;;;34.83;10.40;;;;;;;;;;5066438;27;100903;-77
2021/12/29 07:47:07;;;;;;;34.88;11.10;;;;;;;;;;5061416;27;97645;-75
2021/12/29 07:49:33;;;;;;;41.60;11.80;;;;;;;;;;5055858;27;95806;-75
2021/12/29 07:52:00;;;;;;;36.95;13.05;;;;;;;;;;5067426;27;97318;-74
2021/12/29 07:54:26;;;;;;;38.45;11.75;;;;;;;;;;5066433;27;97259;-76
2021/12/29 07:56:52;;;;;;;48.35;11.88;;;;;;;;;;5060828;27;95419;-74
2021/12/29 07:59:19;;;;;;;36.55;12.13;;;;;;;;;;5068316;27;97162;-78
2021/12/29 08:01:46;;;;;;;47.85;10.88;;;;;;;;;;5070597;27;97576;-75
2021/12/29 08:04:13;;;;;;;34.10;11.95;;;;;;;;;;5065210;27;97142;-74
2021/12/29 08:06:40;;;;;;;36.30;11.40;;;;;;;;;;5068642;27;100127;-74
2021/12/29 08:09:12;;;;;;;31.30;11.73;;;;;;;;;;5068870;27;95983;-73
2021/12/29 08:11:42;;;;;;;31.58;11.50;;;;;;;;;;5066898;27;96775;-76
2021/12/29 08:14:09;;;;;;;44.03;11.80;;;;;;;;;;5066634;27;97378;-73
2021/12/29 08:16:35;;;;;;;40.67;12.73;;;;;;;;;;5068145;27;95972;-75
2021/12/29 08:19:03;;;;;;;37.40;12.27;;;;;;;;;;5068720;27;97010;-74
2021/12/29 08:21:29;;;;;;;39.67;12.93;;;;;;;;;;5067317;27;97294;-75
2021/12/29 08:23:55;;;;;;;38.88;13.70;;;;;;;;;;5071410;27;96034;-74
2021/12/29 08:26:21;;;;;;;31.85;12.50;;;;;;;;;;5066237;27;96981;-76
2021/12/29 08:28:50;;;;;;;41.15;13.13;;;;;;;;;;5066741;27;95607;-76
2021/12/29 08:31:17;;;;;;;39.13;13.13;;;;;;;;;;5067257;27;95808;-74
2021/12/29 08:33:44;;;;;;;33.97;13.13;;;;;;;;;;5067939;27;97585;-75
2021/12/29 15:37:18;;;;;;;45.45;18.45;;;;;;;;;;5096553;27;95926;-79
2021/12/29 15:39:44;;;;;;;41.08;19.25;;;;;;;;;;5084823;27;97565;-79
2021/12/29 15:42:12;;;;;;;38.72;18.45;;;;;;;;;;5085424;27;95693;-79
2021/12/29 15:44:38;;;;;;;43.67;18.77;;;;;;;;;;5082868;27;97106;-78
2021/12/29 15:47:05;;;;;;;44.08;18.80;;;;;;;;;;5084056;27;97709;-78
2021/12/29 15:49:32;;;;;;;40.90;17.52;;;;;;;;;;5084989;27;95356;-81
2021/12/29 15:51:58;;;;;;;35.00;17.48;;;;;;;;;;5084853;27;95685;-81
2021/12/29 15:54:24;;;;;;;38.67;17.58;;;;;;;;;;5083428;27;97246;-82
2021/12/29 15:56:51;;;;;;;42.85;17.65;;;;;;;;;;5088484;27;95697;-80
2021/12/29 15:59:17;;;;;;;37.35;17.88;;;;;;;;;;5084208;27;98679;-79
2021/12/29 16:01:43;;;;;;;39.13;18.20;;;;;;;;;;5085467;27;95365;-79
2021/12/29 16:04:10;;;;;;;42.58;18.65;;;;;;;;;;5084598;27;96841;-80
2021/12/29 16:06:37;;;;;;;51.45;19.60;;;;;;;;;;5083743;27;97268;-80
2021/12/29 16:09:04;;;;;;;45.88;18.00;;;;;;;;;;5084917;27;95298;-82
2021/12/29 16:11:30;;;;;;;40.22;17.30;;;;;;;;;;5083151;27;96719;-80
2021/12/29 16:13:56;;;;;;;35.75;15.98;;;;;;;;;;5083909;27;97230;-79
2021/12/29 16:16:23;;;;;;;35.03;15.93;;;;;;;;;;5075795;27;95282;-76
2021/12/29 16:18:49;;;;;;;40.95;19.80;;;;;;;;;;5087782;27;100015;-79
2021/12/29 16:21:15;;;;;;;41.67;17.67;;;;;;;;;;5083468;27;96080;-78
2021/12/29 16:23:42;;;;;;;33.75;17.20;;;;;;;;;;5084441;27;96928;-79
2021/12/29 16:26:08;;;;;;;41.83;19.13;;;;;;;;;;5083777;27;97386;-83
2021/12/29 16:28:35;;;;;;;43.88;19.13;;;;;;;;;;5083240;27;95556;-82
2021/12/29 16:31:01;;;;;;;49.58;19.33;;;;;;;;;;5084681;27;97200;-82
2021/12/29 16:33:28;;;;;;;35.83;17.48;;;;;;;;;;5083229;27;97346;-82
2021/12/29 16:35:54;;;;;;;39.55;17.70;;;;;;;;;;5083900;27;95249;-84
2021/12/29 16:38:21;;;;;;;37.22;17.33;;;;;;;;;;5084302;27;97148;-82
2021/12/29 16:40:47;;;;;;;43.40;20.15;;;;;;;;;;5066517;27;97407;-82
2021/12/29 16:43:13;;;;;;;49.97;21.95;;;;;;;;;;5068344;27;96613;-82
2021/12/29 16:45:40;;;;;;;52.90;21.45;;;;;;;;;;5084043;27;97194;-81
2021/12/29 16:48:06;;;;;;;40.30;19.10;;;;;;;;;;5072227;27;96626;-82
2021/12/29 16:50:33;;;;;;;48.50;21.48;;;;;;;;;;5070284;27;96992;-82
2021/12/29 16:52:59;;;;;;;53.80;21.38;;;;;;;;;;5070167;27;97352;-82
2021/12/29 16:55:27;;;;;;;49.55;19.70;;;;;;;;;;5069302;27;95317;-79
2021/12/29 16:57:54;;;;;;;45.85;19.73;;;;;;;;;;5070472;27;97611;-80
2021/12/29 17:00:21;;;;;;;49.67;18.77;;;;;;;;;;5068218;27;97102;-79
2021/12/29 17:02:48;;;;;;;39.65;17.42;;;;;;;;;;5072077;27;95404;-81
2021/12/29 17:05:15;;;;;;;43.70;18.92;;;;;;;;;;5069649;27;97431;-78
2021/12/29 17:07:41;;;;;;;54.10;21.13;;;;;;;;;;5070047;27;95672;-80
2021/12/29 17:10:12;;;;;;;49.17;21.75;;;;;;;;;;5069473;27;96807;-82
2021/12/29 17:12:40;;;;;;;63.25;24.77;;;;;;;;;;5069808;27;97407;-83
2021/12/29 17:15:07;;;;;;;48.67;20.85;;;;;;;;;;5069739;27;95408;-79
2021/12/29 17:17:33;;;;;;;51.60;21.05;;;;;;;;;;5068668;27;96742;-79
2021/12/29 17:20:02;;;;;;;53.72;19.45;;;;;;;;;;5069477;27;97324;-81
2021/12/29 17:22:29;;;;;;;54.28;19.02;;;;;;;;;;5068793;27;96299;-79
2021/12/29 17:24:55;;;;;;;68.13;22.52;;;;;;;;;;5072159;27;96903;-81
2021/12/29 17:27:22;;;;;;;57.05;18.85;;;;;;;;;;5069131;27;95442;-79
2021/12/29 17:29:48;;;;;;;55.88;19.85;;;;;;;;;;5069160;27;96878;-79
2021/12/29 17:32:15;;;;;;;53.72;19.45;;;;;;;;;;5069374;27;97353;-78
2021/12/29 17:34:42;;;;;;;55.95;19.55;;;;;;;;;;5069837;27;95121;-79
2021/12/29 17:37:08;;;;;;;65.38;21.17;;;;;;;;;;5069056;27;97480;-83
2021/12/29 17:39:35;;;;;;;64.35;22.85;;;;;;;;;;5068823;27;97320;-82
2021/12/29 17:42:01;;;;;;;75.55;24.40;;;;;;;;;;5069925;27;95720;-80
2021/12/29 17:44:28;;;;;;;80.00;24.55;;;;;;;;;;5068599;27;96834;-78
2021/12/29 17:46:55;;;;;;;69.00;23.45;;;;;;;;;;5072800;27;96094;-79
2021/12/29 17:49:27;;;;;;;74.70;24.30;;;;;;;;;;5068286;27;96786;-79
2021/12/29 17:51:53;;;;;;;79.05;26.08;;;;;;;;;;5068742;27;96369;-78
2021/12/29 17:54:19;;;;;;;100.22;34.08;;;;;;;;;;5068246;27;95444;-80
2021/12/29 17:56:46;;;;;;;118.55;43.30;;;;;;;;;;5069000;27;96768;-78
2021/12/29 17:59:13;;;;;;;81.32;30.15;;;;;;;;;;5067005;27;97358;-81
2021/12/29 18:01:40;;;;;;;76.70;27.17;;;;;;;;;;5069342;27;96559;-79
2021/12/29 18:04:07;;;;;;;76.53;27.75;;;;;;;;;;5067684;27;97063;-76
2021/12/29 18:06:33;;;;;;;94.53;29.65;;;;;;;;;;5071197;27;97211;-78
2021/12/29 18:09:02;;;;;;;93.50;28.45;;;;;;;;;;5069645;27;95898;-79
2021/12/29 18:11:29;;;;;;;86.75;29.10;;;;;;;;;;5067389;27;97376;-79
2021/12/29 18:13:55;;;;;;;90.28;27.92;;;;;;;;;;5068670;27;96712;-78
2021/12/29 18:16:21;;;;;;;91.75;28.75;;;;;;;;;;5068126;27;96706;-80
2021/12/29 18:18:48;;;;;;;80.65;27.70;;;;;;;;;;5068595;27;96210;-77
2021/12/29 18:21:15;;;;;;;83.90;29.02;;;;;;;;;;5068893;27;96763;-77
2021/12/29 18:23:41;;;;;;;79.78;27.35;;;;;;;;;;5068477;27;95553;-77
2021/12/29 18:26:11;;;;;;;65.75;27.33;;;;;;;;;;5067662;27;97358;-77
2021/12/29 18:28:38;;;;;;;55.42;23.52;;;;;;;;;;5072493;27;95319;-77
2021/12/29 18:31:05;;;;;;;60.63;23.42;;;;;;;;;;5068641;27;98304;-80
2021/12/29 18:33:32;;;;;;;62.42;23.25;;;;;;;;;;5067489;27;95361;-81
2021/12/29 18:35:58;;;;;;;59.47;21.92;;;;;;;;;;5068414;27;96696;-78
2021/12/29 18:38:25;;;;;;;62.40;21.02;;;;;;;;;;5068314;27;97639;-78
2021/12/29 18:40:51;;;;;;;51.40;19.60;;;;;;;;;;5068194;27;95624;-77
2021/12/29 18:43:17;;;;;;;52.30;20.65;;;;;;;;;;5068209;27;96748;-81
2021/12/29 18:45:44;;;;;;;49.50;19.15;;;;;;;;;;5067971;27;97298;-80
2021/12/29 18:48:12;;;;;;;51.30;19.80;;;;;;;;;;5047581;27;95198;-79
2021/12/29 18:50:39;;;;;;;59.10;18.42;;;;;;;;;;5051407;27;96845;-79
2021/12/29 18:53:06;;;;;;;48.03;17.90;;;;;;;;;;5048014;27;95385;-81
2021/12/29 18:55:35;;;;;;;49.90;17.65;;;;;;;;;;5066175;27;96951;-80
2021/12/29 18:58:05;;;;;;;42.22;17.83;;;;;;;;;;5068352;27;98487;-76
2021/12/29 19:00:33;;;;;;;53.60;17.33;;;;;;;;;;5067865;27;95381;-77
2021/12/29 19:02:59;;;;;;;46.78;17.83;;;;;;;;;;5068123;27;96705;-76
2021/12/29 19:05:26;;;;;;;67.93;18.83;;;;;;;;;;5066476;27;96492;-78
2021/12/29 19:07:53;;;;;;;53.95;18.02;;;;;;;;;;5063148;27;95707;-79
2021/12/29 19:10:23;;;;;;;58.08;18.75;;;;;;;;;;5067693;27;97586;-79
2021/12/29 19:12:50;;;;;;;51.65;17.40;;;;;;;;;;5071081;27;97627;-77
2021/12/29 19:15:21;;;;;;;53.88;19.23;;;;;;;;;;5067068;27;96957;-80
2021/12/29 19:17:47;;;;;;;68.20;17.30;;;;;;;;;;5067745;27;97111;-79
2021/12/29 19:20:15;;;;;;;76.30;17.50;;;;;;;;;;5067740;27;95794;-81
2021/12/29 19:22:42;;;;;;;57.85;15.43;;;;;;;;;;5067426;27;95930;-79
2021/12/29 19:25:09;;;;;;;57.15;14.55;;;;;;;;;;5065136;27;96908;-77
2021/12/29 19:27:36;;;;;;;53.00;13.32;;;;;;;;;;5067983;27;95315;-79
2021/12/29 19:30:03;;;;;;;59.00;13.30;;;;;;;;;;5067803;27;96778;-76
2021/12/29 19:32:30;;;;;;;46.42;13.15;;;;;;;;;;5066869;27;97682;-76
2021/12/29 19:34:56;;;;;;;48.92;12.65;;;;;;;;;;5069684;27;96670;-77
2021/12/29 19:37:22;;;;;;;57.45;13.98;;;;;;;;;;5065564;27;97419;-78
2021/12/29 19:39:49;;;;;;;45.90;10.90;;;;;;;;;;5068129;27;95182;-80
2021/12/29 19:42:19;;;;;;;53.08;12.50;;;;;;;;;;5067044;27;96891;-80
2021/12/29 19:44:46;;;;;;;53.95;11.68;;;;;;;;;;5066861;27;97606;-79
2021/12/29 19:47:17;;;;;;;51.58;11.32;;;;;;;;;;5067620;27;95308;-78
2021/12/29 19:49:44;;;;;;;55.63;11.27;;;;;;;;;;5067677;27;96859;-77
2021/12/29 19:52:15;;;;;;;48.10;10.85;;;;;;;;;;5066405;27;97528;-77
2021/12/29 19:54:45;;;;;;;59.75;10.30;;;;;;;;;;5068990;27;95448;-78
2021/12/29 19:57:12;;;;;;;56.30;10.77;;;;;;;;;;5062246;27;97116;-76
2021/12/29 19:59:39;;;;;;;62.42;10.57;;;;;;;;;;5066001;27;95685;-77
2021/12/29 20:02:05;;;;;;;67.22;10.18;;;;;;;;;;5067224;27;96761;-76
2021/12/29 20:04:32;;;;;;;61.13;10.57;;;;;;;;;;5066494;27;97235;-76
2021/12/29 20:07:01;;;;;;;57.08;10.30;;;;;;;;;;5067461;27;96030;-75
2021/12/29 20:09:29;;;;;;;45.70;10.55;;;;;;;;;;5067076;27;96816;-77
2021/12/29 20:11:57;;;;;;;55.20;10.40;;;;;;;;;;5066543;27;97692;-76
2021/12/29 20:14:28;;;;;;;48.15;9.52;;;;;;;;;;5067109;27;95544;-77
2021/12/29 20:16:55;;;;;;;58.33;10.75;;;;;;;;;;5071009;27;96606;-77
2021/12/29 20:19:22;;;;;;;64.32;10.65;;;;;;;;;;5065324;27;95515;-79
2021/12/29 20:21:50;;;;;;;68.15;10.65;;;;;;;;;;5067714;27;96847;-79
2021/12/29 20:24:16;;;;;;;61.05;12.77;;;;;;;;;;5070438;27;97399;-80
2021/12/29 20:26:43;;;;;;;67.75;11.00;;;;;;;;;;5069626;27;95413;-79
2021/12/29 20:29:09;;;;;;;57.10;9.75;;;;;;;;;;5071251;27;97257;-80
2021/12/29 20:31:36;;;;;;;59.15;9.85;;;;;;;;;;5072034;27;97398;-79
2021/12/29 20:34:08;;;;;;;53.28;8.77;;;;;;;;;;5071274;27;95369;-79
2021/12/29 20:36:40;;;;;;;56.90;9.05;;;;;;;;;;5064820;27;96403;-79
2021/12/29 20:39:07;;;;;;;57.58;9.70;;;;;;;;;;5054331;27;97472;-75
2021/12/29 20:41:34;;;;;;;61.50;8.77;;;;;;;;;;5049299;27;97345;-77
2021/12/29 20:44:00;;;;;;;56.63;7.50;;;;;;;;;;5070705;27;97579;-78
2021/12/29 20:46:26;;;;;;;54.75;8.93;;;;;;;;;;5070898;27;95498;-77
2021/12/29 20:48:54;;;;;;;51.85;9.77;;;;;;;;;;5071369;27;96867;-77
2021/12/29 20:51:21;;;;;;;55.50;8.70;;;;;;;;;;5070489;27;97919;-77
2021/12/29 20:53:48;;;;;;;49.88;8.30;;;;;;;;;;5070661;27;95785;-79
2021/12/29 20:56:14;;;;;;;60.15;7.82;;;;;;;;;;5069146;27;96833;-76
2021/12/29 20:58:41;;;;;;;60.55;8.75;;;;;;;;;;5070474;27;97615;-78
2021/12/29 21:01:08;;;;;;;48.92;8.93;;;;;;;;;;5073791;27;95807;-78
2021/12/29 21:03:34;;;;;;;52.83;7.38;;;;;;;;;;5070641;27;97708;-79
2021/12/29 21:06:01;;;;;;;48.38;8.13;;;;;;;;;;5070621;27;95164;-79
2021/12/29 21:08:28;;;;;;;50.30;8.85;;;;;;;;;;5069919;27;96684;-78
2021/12/29 21:10:54;;;;;;;51.92;7.82;;;;;;;;;;5070486;27;96943;-78
2021/12/29 21:13:21;;;;;;;48.30;7.40;;;;;;;;;;5070079;27;95169;-80
2021/12/29 21:15:47;;;;;;;53.90;7.57;;;;;;;;;;5070580;27;96877;-79
2021/12/29 21:18:34;;;;;;;53.78;8.07;;;;;;;;;;5069818;27;99056;-76
2021/12/29 21:21:01;;;;;;;58.85;7.72;;;;;;;;;;5070243;27;95338;-78
2021/12/29 21:23:29;;;;;;;47.20;7.63;;;;;;;;;;5073476;27;96900;-77
2021/12/29 21:25:55;;;;;;;53.35;8.05;;;;;;;;;;5071402;27;95728;-78
2021/12/29 21:28:22;;;;;;;56.50;7.70;;;;;;;;;;5068451;27;97353;-79
2021/12/29 21:30:48;;;;;;;67.63;8.30;;;;;;;;;;5069798;27;97769;-75
2021/12/29 21:33:15;;;;;;;67.20;8.20;;;;;;;;;;5070349;27;96973;-76
2021/12/29 21:35:41;;;;;;;64.45;8.45;;;;;;;;;;5067206;27;96881;-79